Airfield :
LOGIN :

Register | Disclaimer

   EN    FR    IT 

 










Legend :    VFR   Marginal VFR   IFR   Intensive IFR   Very Intensive IFR
Visi :
Ceiling :
>= 8 km
>= 3000ft
5 to 8 km
1000 to 3000 ft
1500m to 5 km
500 to 1000 ft
800 to 1500m
200 to 500 ft
< 800m
< 200 ft
Symbols :   Thunderstorms  Fog  Heavy snow  Heavy precipitations  Wind > 20 kt
SIGMETs :     Misc.  Thunderstorms  Icing  Turbulence  Mountain Waves  Volcanic Ashes







- Airport Elevation : 3 ft
- IATA code : LWR


EHLW - Leuuwarden Air Base

CURRENT METAR :
  • 190755Z AUTO 09007KT 350V140 9999 NCD 20/14 Q1019 BLU 07006KT 9999 FEW045 SCT075 RMK R05

EXPIRED METARs :
  • 190725Z AUTO 08008KT 010V130 9999 BKN260 19/14 Q1019 BLU 07006KT 9999 FEW045 SCT075 RMK R05
  • 190655Z AUTO 06006KT 010V130 9999 SCT075 OVC280 17/14 Q1019 BLU 07006KT 9999 FEW045 SCT075 RMK R05
  • 190646Z AUTO 07006KT 010V130 9999 BKN074 BKN310 17/14 Q1019 BLU 07006KT 9999 FEW045 SCT075 RMK R05
  • 190625Z AUTO 05004KT 010V080 9999 SCT075 BKN300 16/14 Q1019 BLU 06005KT 9999 BKN045 RMK R05
  • 190555Z AUTO 07004KT 350V160 9999 SCT055 BKN074 16/13 Q1019 BLU 06005KT 9999 BKN045 RMK R05
  • 190525Z AUTO 06005KT 010V130 9999 BKN046 OVC050 15/13 Q1019 BLU 06005KT 9999 BKN045 RMK R05
  • 190516Z AUTO 06005KT 010V110 9999 BKN047 BKN054 BKN066 15/13 Q1019 BLU 06005KT 9999 BKN045 RMK R05
  • 190455Z AUTO 06006KT 020V100 9999 SCT044 BKN053 BKN064 14/13 Q1019 BLU

TAF TAF EHLW
Valid from the 19 at 05:00 until the 19 at 17:00 UTC


190413Z 1905/1917 08003KT CAVOK
BECMG 1907/1910 03010KT
No reported NOTAMs for that airfield.



MET'MAP, your aeronautical weather chart ! - Copyright ORBIFLY December 2007 - Disclaimer

ORBIFLY MET'MAP TEAM :

Programming & Development : Alexandra Zaïnal
Concept & Development : Baudouin d'Aumeries
Co-Development & Prog : Marc-Olivier Méhu
Technical & hardware support : Manuel Goepfert

Contact : metmap@orbifly.com




SOURCES & CREDITS :

   NOAA